Time;durP1;ratioP1;P1;durP2;ratioP2;P2;SDS_P1;SDS_P2;PMS_P1;PMS_P2;Temp;Humidity;BMP_temperature;BMP_pressure;BME280_temperature;BME280_humidity;BME280_pressure;Samples;Min_cycle;Max_cycle;Signal;HPM_P1;HPM_P2
2023/09/05 00:00:16;;;;;;;2.30;0.80;;;;;;;15.28;100.00;100951.53;105093;1253;73021;-53
2023/09/05 00:02:45;;;;;;;0.70;0.50;;;;;;;15.22;100.00;100949.30;105327;1253;62168;-53
2023/09/05 00:05:12;;;;;;;1.00;0.50;;;;;;;15.16;100.00;100958.95;105214;1254;60054;-50
2023/09/05 00:07:40;;;;;;;1.20;0.70;;;;;;;15.10;100.00;100960.70;105140;1258;71820;-51
2023/09/05 00:10:11;;;;;;;1.30;0.70;;;;;;;15.02;100.00;100964.73;105113;1256;65662;-53
2023/09/05 00:12:40;;;;;;;1.10;0.80;;;;;;;14.91;100.00;100959.05;105169;1259;71842;-51
2023/09/05 00:15:09;;;;;;;2.00;0.60;;;;;;;14.83;100.00;100963.27;105202;1256;59643;-52
2023/09/05 00:17:37;;;;;;;2.10;0.80;;;;;;;14.73;100.00;100961.90;105186;1254;60006;-52
2023/09/05 00:20:06;;;;;;;0.90;0.80;;;;;;;14.66;100.00;100962.98;105490;1257;75200;-51
2023/09/05 00:22:33;;;;;;;0.90;0.70;;;;;;;14.59;100.00;100960.05;105261;1254;66085;-53
2023/09/05 00:25:01;;;;;;;0.70;0.60;;;;;;;14.54;100.00;100963.16;105017;1254;72734;-49
2023/09/05 00:27:29;;;;;;;2.20;0.70;;;;;;;14.49;100.00;100961.23;105039;1257;62182;-53
2023/09/05 00:29:57;;;;;;;4.80;0.60;;;;;;;14.44;100.00;100966.54;104700;1259;59939;-51
2023/09/05 00:32:24;;;;;;;1.20;0.60;;;;;;;14.38;100.00;100964.20;104924;1259;75085;-53
2023/09/05 00:34:52;;;;;;;1.50;0.50;;;;;;;14.35;100.00;100962.55;105048;1258;67287;-53
2023/09/05 00:37:22;;;;;;;4.90;0.50;;;;;;;14.32;100.00;100965.54;104546;1254;71408;-52
2023/09/05 00:39:50;;;;;;;3.00;0.60;;;;;;;14.30;100.00;100968.17;105316;1259;60518;-52
2023/09/05 00:42:17;;;;;;;0.70;0.60;;;;;;;14.26;100.00;100967.64;104801;1257;59708;-52
2023/09/05 00:44:47;;;;;;;1.00;0.60;;;;;;;14.22;100.00;100970.70;104675;1254;75113;-50
2023/09/05 00:47:15;;;;;;;1.30;0.80;;;;;;;14.20;100.00;100973.13;104850;1253;65928;-52
2023/09/05 00:49:47;;;;;;;1.10;0.70;;;;;;;14.18;100.00;100975.92;104745;1254;72650;-52
2023/09/05 00:52:15;;;;;;;0.80;0.50;;;;;;;14.14;100.00;100969.44;104818;1259;60228;-53
2023/09/05 00:54:43;;;;;;;1.40;0.80;;;;;;;14.09;100.00;100968.75;104850;1254;59995;-53
2023/09/05 00:57:11;;;;;;;0.80;0.60;;;;;;;14.04;100.00;100970.61;104947;1259;73474;-53
2023/09/05 00:59:39;;;;;;;0.80;0.60;;;;;;;13.99;100.00;100970.61;105357;1259;65628;-53
2023/09/05 01:02:06;;;;;;;0.90;0.60;;;;;;;13.93;100.00;100971.26;104946;1261;70888;-51
2023/09/05 01:04:33;;;;;;;0.80;0.70;;;;;;;13.86;100.00;100970.82;104992;1254;59704;-51
2023/09/05 01:07:48;;;;;;;0.80;0.50;;;;;;;13.82;100.00;100972.45;104896;1254;60005;-51
2023/09/05 01:10:20;;;;;;;0.80;0.60;;;;;;;13.78;100.00;100980.02;106861;1258;70952;-51
2023/09/05 01:12:47;;;;;;;1.20;0.50;;;;;;;13.75;100.00;100985.02;104866;1259;65571;-48
2023/09/05 01:15:15;;;;;;;2.50;0.60;;;;;;;13.75;100.00;100988.45;105000;1260;72913;-48
2023/09/05 01:17:44;;;;;;;0.70;0.60;;;;;;;13.75;100.00;100990.24;104989;1254;60092;-48
2023/09/05 01:20:16;;;;;;;1.10;0.60;;;;;;;13.75;100.00;100990.23;105235;1254;59898;-49
2023/09/05 01:22:52;;;;;;;1.30;0.70;;;;;;;13.74;100.00;100993.34;104848;1254;71835;-50
2023/09/05 01:25:20;;;;;;;0.70;0.60;;;;;;;13.72;100.00;100997.05;105095;1254;67891;-48
2023/09/05 01:27:48;;;;;;;1.30;0.70;;;;;;;13.67;100.00;100993.83;104896;1259;72647;-49
2023/09/05 01:30:16;;;;;;;0.80;0.70;;;;;;;13.62;100.00;100992.91;105293;1254;62072;-51
2023/09/05 01:32:43;;;;;;;0.60;0.50;;;;;;;13.58;100.00;100989.84;104797;1258;59749;-49
2023/09/05 01:35:11;;;;;;;0.90;0.60;;;;;;;13.56;100.00;100985.78;109134;1253;71776;-47
2023/09/05 01:37:38;;;;;;;2.00;0.60;;;;;;;13.55;100.00;100987.43;109012;1254;67858;-45
2023/09/05 01:40:07;;;;;;;0.70;0.60;;;;;;;13.54;100.00;100988.93;108934;1253;72616;-46
2023/09/05 01:42:34;;;;;;;1.80;0.60;;;;;;;13.52;100.00;100986.32;109158;1256;61609;-47
2023/09/05 01:45:01;;;;;;;0.80;0.60;;;;;;;13.51;100.00;100987.44;109135;1253;59998;-47
2023/09/05 01:47:29;;;;;;;1.90;0.70;;;;;;;13.51;100.00;100989.60;109054;1254;74289;-47
2023/09/05 01:49:56;;;;;;;1.30;0.70;;;;;;;13.51;100.00;100983.68;109147;1254;65350;-46
2023/09/05 01:52:23;;;;;;;1.60;0.60;;;;;;;13.51;100.00;100984.38;108895;1254;71997;-49
2023/09/05 01:54:51;;;;;;;3.40;0.70;;;;;;;13.50;100.00;100982.29;109069;1254;60144;-45
2023/09/05 01:57:18;;;;;;;1.30;0.70;;;;;;;13.49;100.00;100980.70;109100;1253;58797;-47
2023/09/05 01:59:45;;;;;;;1.10;0.70;;;;;;;13.47;100.00;100978.79;109151;1253;74240;-50
2023/09/05 02:02:13;;;;;;;2.00;0.60;;;;;;;13.42;100.00;100983.48;109103;1253;67217;-46
2023/09/05 02:04:41;;;;;;;1.00;0.70;;;;;;;13.40;100.00;100979.60;109037;1254;72635;-46
2023/09/05 02:07:09;;;;;;;1.00;0.60;;;;;;;13.37;100.00;100979.18;109072;1254;61679;-49
2023/09/05 02:09:36;;;;;;;1.10;0.50;;;;;;;13.37;100.00;100979.73;109066;1257;58734;-51
2023/09/05 02:12:04;;;;;;;0.90;0.50;;;;;;;13.39;100.00;100980.37;107683;1253;74698;-48
2023/09/05 02:14:32;;;;;;;1.00;0.50;;;;;;;13.41;100.00;100981.56;104776;1259;65477;-51
2023/09/05 02:17:00;;;;;;;0.80;0.60;;;;;;;13.43;100.00;100982.58;107567;1254;71385;-47
2023/09/05 02:19:28;;;;;;;1.40;0.50;;;;;;;13.45;100.00;100984.07;105058;1254;61668;-48
2023/09/05 02:21:56;;;;;;;1.00;0.60;;;;;;;13.47;100.00;100984.56;105068;1257;60443;-48
2023/09/05 02:24:26;;;;;;;0.70;0.50;;;;;;;13.47;100.00;100983.29;105595;1254;72568;-47
2023/09/05 02:26:54;;;;;;;0.90;0.70;;;;;;;13.47;100.00;100988.85;105340;1251;67897;-46
2023/09/05 02:29:25;;;;;;;0.80;0.60;;;;;;;13.49;100.00;100990.26;105297;1254;72604;-48
2023/09/05 02:31:53;;;;;;;0.70;0.60;;;;;;;13.48;100.00;100982.89;105227;1257;60629;-50
2023/09/05 02:34:20;;;;;;;1.40;0.60;;;;;;;13.48;100.00;100989.73;105261;1253;60547;-47
2023/09/05 02:36:48;;;;;;;1.50;0.60;;;;;;;13.47;100.00;100989.77;105082;1256;73924;-48
2023/09/05 02:39:15;;;;;;;1.20;0.60;;;;;;;13.45;100.00;100991.45;105004;1256;67185;-48
2023/09/05 02:41:43;;;;;;;0.80;0.60;;;;;;;13.43;100.00;100993.19;105135;1257;73002;-49
2023/09/05 02:44:10;;;;;;;0.70;0.60;;;;;;;13.41;100.00;100998.68;105092;1254;61647;-48
2023/09/05 02:46:38;;;;;;;1.00;0.60;;;;;;;13.37;100.00;101000.46;105028;1256;60496;-47
2023/09/05 02:49:05;;;;;;;0.70;0.50;;;;;;;13.33;100.00;100996.30;105128;1254;72536;-46
2023/09/05 02:51:32;;;;;;;0.60;0.50;;;;;;;13.33;100.00;100997.58;104980;1258;67728;-49
2023/09/05 02:54:00;;;;;;;0.70;0.50;;;;;;;13.34;100.00;100998.45;105110;1254;72757;-46
2023/09/05 02:56:28;;;;;;;0.80;0.60;;;;;;;13.32;100.00;100999.61;104822;1251;60439;-50
2023/09/05 02:58:55;;;;;;;0.90;0.60;;;;;;;13.29;100.00;100998.99;105087;1259;60520;-51
2023/09/05 03:01:22;;;;;;;1.50;0.60;;;;;;;13.26;100.00;100998.55;104927;1256;72681;-47
2023/09/05 03:03:51;;;;;;;0.80;0.70;;;;;;;13.25;100.00;100999.52;105065;1259;66429;-47
2023/09/05 03:06:18;;;;;;;2.70;0.70;;;;;;;13.20;100.00;101004.92;105047;1255;72599;-51
2023/09/05 03:08:46;;;;;;;0.70;0.60;;;;;;;13.14;100.00;101008.57;104925;1256;60424;-46
2023/09/05 03:11:17;;;;;;;0.90;0.60;;;;;;;13.07;100.00;101007.73;105207;1253;60540;-47
2023/09/05 03:13:45;;;;;;;1.10;0.60;;;;;;;13.03;100.00;101015.81;105204;1256;73814;-50
2023/09/05 03:16:14;;;;;;;0.70;0.50;;;;;;;13.00;100.00;101014.33;105102;1251;65081;-47
2023/09/05 03:18:44;;;;;;;0.70;0.60;;;;;;;12.98;100.00;101016.75;105682;1251;72881;-48
2023/09/05 03:21:11;;;;;;;2.90;0.50;;;;;;;12.96;100.00;101023.48;105002;1254;60587;-51
2023/09/05 03:23:39;;;;;;;2.20;0.60;;;;;;;12.96;100.00;101023.48;105066;1251;60626;-51
2023/09/05 03:26:06;;;;;;;1.00;0.60;;;;;;;12.96;100.00;101027.27;105000;1257;74374;-50
2023/09/05 03:28:41;;;;;;;0.80;0.70;;;;;;;12.92;100.00;101026.52;105154;1256;65524;-49
2023/09/05 03:31:11;;;;;;;1.80;0.70;;;;;;;12.89;100.00;101026.44;105194;1257;72741;-48
2023/09/05 03:33:39;;;;;;;3.50;0.60;;;;;;;12.90;100.00;101024.42;104793;1251;62156;-46
2023/09/05 03:36:08;;;;;;;1.80;0.50;;;;;;;12.93;100.00;101024.89;105134;1254;60638;-47
2023/09/05 03:38:37;;;;;;;0.90;0.60;;;;;;;12.95;100.00;101028.75;105265;1251;74511;-48
2023/09/05 03:41:04;;;;;;;0.70;0.60;;;;;;;12.97;100.00;101024.15;104715;1251;68774;-51
2023/09/05 03:43:32;;;;;;;0.80;0.70;;;;;;;12.99;100.00;101026.99;104986;1257;73741;-48
2023/09/05 03:46:00;;;;;;;0.70;0.60;;;;;;;12.99;100.00;101025.37;105120;1256;60524;-47
2023/09/05 03:48:27;;;;;;;0.90;0.60;;;;;;;12.97;100.00;101023.27;105412;1257;60481;-46
2023/09/05 03:50:55;;;;;;;0.90;0.50;;;;;;;12.97;100.00;101027.41;104947;1253;73029;-50
2023/09/05 03:53:22;;;;;;;0.70;0.60;;;;;;;12.96;100.00;101031.23;104987;1252;67856;-50
2023/09/05 03:55:50;;;;;;;0.90;0.70;;;;;;;12.92;100.00;101031.02;105182;1252;72650;-49
2023/09/05 03:58:17;;;;;;;0.60;0.50;;;;;;;12.87;100.00;101036.25;105053;1257;60482;-47
2023/09/05 04:00:45;;;;;;;3.20;1.00;;;;;;;12.84;100.00;101038.90;105427;1256;60533;-48
2023/09/05 04:03:13;;;;;;;2.60;0.60;;;;;;;12.83;100.00;101041.45;105319;1251;72722;-47
2023/09/05 04:05:40;;;;;;;0.70;0.50;;;;;;;12.81;100.00;101043.13;105519;1254;69714;-49
2023/09/05 04:08:08;;;;;;;1.30;0.60;;;;;;;12.78;100.00;101045.58;104674;1252;72407;-47
2023/09/05 04:10:36;;;;;;;1.00;0.80;;;;;;;12.75;100.00;101043.53;104937;1251;60553;-49
2023/09/05 04:13:04;;;;;;;0.80;0.60;;;;;;;12.77;100.00;101039.15;105070;1254;60615;-50
2023/09/05 04:15:32;;;;;;;2.50;0.60;;;;;;;12.81;100.00;101042.41;104916;1251;74295;-52
2023/09/05 04:17:59;;;;;;;1.00;0.60;;;;;;;12.88;100.00;101043.41;104727;1256;66356;-48
2023/09/05 04:20:31;;;;;;;1.00;0.60;;;;;;;12.95;100.00;101045.14;109179;1253;73181;-47
2023/09/05 04:22:59;;;;;;;1.00;0.60;;;;;;;13.03;100.00;101046.13;109133;1253;61768;-48
2023/09/05 04:25:27;;;;;;;1.00;0.60;;;;;;;13.11;100.00;101048.51;109167;1251;58718;-48
2023/09/05 04:27:54;;;;;;;4.80;0.90;;;;;;;13.25;100.00;101043.11;109208;1251;74833;-47
2023/09/05 04:30:22;;;;;;;2.50;0.70;;;;;;;13.51;100.00;101040.98;109209;1252;67679;-47
2023/09/05 04:32:49;;;;;;;2.10;0.70;;;;;;;13.83;100.00;101038.60;109287;1251;73187;-49
2023/09/05 04:35:17;;;;;;;1.40;0.70;;;;;;;14.17;100.00;101037.52;109173;1252;58865;-52
2023/09/05 04:37:44;;;;;;;1.30;0.80;;;;;;;14.52;100.00;101036.22;109178;1254;58724;-51
2023/09/05 04:40:12;;;;;;;3.40;1.00;;;;;;;14.82;100.00;101035.22;109217;1254;73822;-50
2023/09/05 04:42:40;;;;;;;1.60;0.80;;;;;;;15.09;100.00;101029.08;109137;1251;67668;-51
2023/09/05 04:45:09;;;;;;;1.20;0.80;;;;;;;15.32;100.00;101030.36;109167;1253;71395;-51
2023/09/05 04:47:38;;;;;;;1.70;0.70;;;;;;;15.45;100.00;101034.04;109232;1251;60462;-49
2023/09/05 04:50:08;;;;;;;1.00;0.80;;;;;;;15.52;100.00;101035.36;109141;1251;60188;-48
2023/09/05 04:52:36;;;;;;;2.20;0.90;;;;;;;15.54;100.00;101032.41;109196;1251;72861;-48
2023/09/05 04:55:04;;;;;;;2.80;0.70;;;;;;;15.50;100.00;101027.65;109173;1253;64502;-47
2023/09/05 04:57:34;;;;;;;1.20;0.70;;;;;;;15.43;100.00;101022.73;109161;1253;73158;-52
2023/09/05 05:00:02;;;;;;;2.10;0.90;;;;;;;15.40;100.00;101021.46;109180;1253;60172;-48
2023/09/05 05:02:31;;;;;;;2.20;1.10;;;;;;;15.40;100.00;101016.02;109179;1251;58759;-50
2023/09/05 05:04:59;;;;;;;1.50;1.00;;;;;;;15.41;100.00;101016.70;109240;1251;74855;-52
2023/09/05 05:07:26;;;;;;;6.30;1.20;;;;;;;15.43;100.00;101014.63;109201;1251;67196;-51
2023/09/05 05:09:53;;;;;;;2.10;1.10;;;;;;;15.45;100.00;101015.79;107367;1251;73687;-47
2023/09/05 05:12:21;;;;;;;1.10;0.80;;;;;;;15.48;100.00;101020.71;104880;1256;62601;-46
2023/09/05 05:14:48;;;;;;;2.50;0.80;;;;;;;15.49;100.00;101017.92;104851;1253;59494;-50
2023/09/05 05:17:15;;;;;;;3.20;1.00;;;;;;;15.53;100.00;101015.98;104822;1254;72670;-49
2023/09/05 05:19:43;;;;;;;1.10;1.00;;;;;;;15.60;100.00;101014.56;104653;1256;67619;-48
2023/09/05 05:22:11;;;;;;;1.60;0.90;;;;;;;15.68;100.00;101014.15;104645;1258;72645;-50
2023/09/05 05:24:38;;;;;;;2.60;1.00;;;;;;;15.76;100.00;101014.09;105074;1254;60654;-48
2023/09/05 05:27:06;;;;;;;3.00;0.80;;;;;;;15.85;100.00;101010.57;104500;1254;60830;-50
2023/09/05 05:29:33;;;;;;;7.90;1.50;;;;;;;15.96;100.00;101008.08;104471;1254;73838;-49
2023/09/05 05:32:01;;;;;;;3.00;0.70;;;;;;;16.05;100.00;101008.64;104896;1254;67376;-48
2023/09/05 05:34:29;;;;;;;2.30;1.20;;;;;;;16.13;100.00;101008.61;104814;1258;73252;-52
2023/09/05 05:36:56;;;;;;;6.20;0.90;;;;;;;16.21;100.00;101006.04;104688;1256;60348;-48
2023/09/05 05:39:25;;;;;;;4.90;1.10;;;;;;;16.30;100.00;101007.55;104900;1253;60427;-48
2023/09/05 05:41:53;;;;;;;1.70;0.90;;;;;;;16.40;100.00;101004.15;104768;1254;73878;-54
2023/09/05 05:44:20;;;;;;;3.00;0.90;;;;;;;16.47;100.00;101003.40;104546;1257;65562;-51
2023/09/05 05:46:47;;;;;;;1.60;0.70;;;;;;;16.56;100.00;101009.59;104630;1254;71466;-51
2023/09/05 05:49:15;;;;;;;1.50;0.70;;;;;;;16.68;100.00;101010.48;104670;1258;60565;-52
2023/09/05 05:51:42;;;;;;;1.50;0.90;;;;;;;16.79;100.00;101008.20;104805;1256;60620;-52
2023/09/05 05:54:10;;;;;;;2.70;1.00;;;;;;;16.93;100.00;101008.35;104605;1253;73180;-49
2023/09/05 05:56:37;;;;;;;3.70;0.90;;;;;;;17.07;100.00;101013.75;104839;1258;65500;-53
2023/09/05 05:59:06;;;;;;;2.90;1.90;;;;;;;17.20;100.00;101008.69;104862;1256;73261;-49
2023/09/05 06:01:34;;;;;;;3.70;1.10;;;;;;;17.32;100.00;101011.61;104866;1254;60648;-50
2023/09/05 06:04:01;;;;;;;2.50;1.00;;;;;;;17.42;100.00;101013.57;106013;1256;60651;-52
2023/09/05 06:06:29;;;;;;;3.10;1.40;;;;;;;17.51;100.00;101004.92;105370;1258;74242;-54
2023/09/05 06:08:57;;;;;;;4.70;2.40;;;;;;;17.60;100.00;101002.80;104834;1257;66449;-49
2023/09/05 06:11:24;;;;;;;7.50;2.80;;;;;;;17.67;100.00;101003.09;104710;1259;72446;-48
2023/09/05 06:13:52;;;;;;;4.60;1.60;;;;;;;17.74;100.00;101004.86;104855;1254;60509;-52
2023/09/05 06:16:20;;;;;;;2.40;1.10;;;;;;;17.81;100.00;101007.00;104752;1255;60393;-53
2023/09/05 06:18:48;;;;;;;2.10;0.80;;;;;;;17.88;100.00;101006.60;105834;1253;72987;-52
2023/09/05 06:21:15;;;;;;;1.20;0.70;;;;;;;17.94;100.00;101004.63;104714;1257;66830;-48
2023/09/05 06:23:43;;;;;;;2.00;0.70;;;;;;;18.01;100.00;101001.64;104727;1255;73326;-48
2023/09/05 06:26:10;;;;;;;0.60;0.40;;;;;;;18.07;100.00;101000.36;104551;1253;60617;-51
2023/09/05 06:28:37;;;;;;;1.50;0.70;;;;;;;18.15;100.00;100997.88;104660;1254;60374;-50
2023/09/05 06:31:05;;;;;;;1.00;0.60;;;;;;;18.25;100.00;100997.31;104731;1254;72540;-49
2023/09/05 06:33:32;;;;;;;3.30;0.70;;;;;;;18.34;100.00;100996.77;104664;1256;66288;-49
2023/09/05 06:36:07;;;;;;;1.60;0.60;;;;;;;18.42;100.00;101000.06;104906;1258;73181;-47
2023/09/05 06:38:34;;;;;;;1.60;0.60;;;;;;;18.52;100.00;101004.02;105196;1254;60443;-53
2023/09/05 06:41:06;;;;;;;0.80;0.60;;;;;;;18.60;100.00;101000.13;104897;1254;60620;-50
2023/09/05 06:43:33;;;;;;;3.40;0.90;;;;;;;18.66;100.00;101004.25;107197;1256;72793;-49
2023/09/05 06:46:05;;;;;;;1.70;0.60;;;;;;;18.72;100.00;101000.95;104912;1252;66762;-51
2023/09/05 06:48:38;;;;;;;1.50;0.90;;;;;;;18.78;100.00;101002.56;104885;1257;72256;-51
2023/09/05 06:51:05;;;;;;;1.60;0.60;;;;;;;18.85;100.00;100998.70;106844;1254;60450;-51
2023/09/05 06:53:33;;;;;;;4.20;0.60;;;;;;;18.93;100.00;100992.39;104794;1254;60919;-50
2023/09/05 06:56:00;;;;;;;3.10;0.60;;;;;;;19.00;100.00;100991.04;108970;1253;72092;-48
2023/09/05 06:58:28;;;;;;;0.80;0.50;;;;;;;19.07;100.00;100988.19;104922;1254;65824;-51
2023/09/05 07:00:56;;;;;;;2.50;0.50;;;;;;;19.16;100.00;100992.70;104939;1254;70879;-50
2023/09/05 07:03:24;;;;;;;0.80;0.40;;;;;;;19.25;100.00;100989.41;108779;1254;59117;-52
2023/09/05 07:05:52;;;;;;;2.40;0.40;;;;;;;19.33;100.00;100984.54;106303;1254;60472;-51
2023/09/05 07:08:32;;;;;;;2.20;0.40;;;;;;;19.40;100.00;100982.59;104745;1258;73097;-49
2023/09/05 07:10:59;;;;;;;0.50;0.50;;;;;;;19.46;100.00;100980.02;104924;1256;65513;-53
2023/09/05 07:13:27;;;;;;;0.60;0.40;;;;;;;19.51;100.00;100981.89;104745;1254;71346;-49
2023/09/05 07:15:56;;;;;;;0.40;0.40;;;;;;;19.55;100.00;100980.34;104779;1254;60576;-54
2023/09/05 07:18:24;;;;;;;0.60;0.40;;;;;;;19.61;100.00;100983.05;104745;1254;61688;-51
2023/09/05 07:20:52;;;;;;;0.40;0.40;;;;;;;19.68;100.00;100981.14;109199;1253;73717;-52
2023/09/05 07:23:19;;;;;;;2.20;0.40;;;;;;;19.74;100.00;100977.64;109125;1254;66280;-53
2023/09/05 07:25:47;;;;;;;0.80;0.40;;;;;;;19.79;100.00;100975.86;109134;1254;71460;-50
2023/09/05 07:28:14;;;;;;;0.90;0.50;;;;;;;19.83;100.00;100976.27;109068;1254;60104;-50
2023/09/05 07:30:42;;;;;;;1.10;0.40;;;;;;;19.87;100.00;100975.09;109215;1252;60622;-49
2023/09/05 07:33:10;;;;;;;1.30;0.40;;;;;;;19.93;100.00;100982.31;109150;1256;72672;-52
2023/09/05 07:35:38;;;;;;;0.60;0.40;;;;;;;20.00;100.00;100984.20;105575;1256;66614;-50
2023/09/05 07:38:05;;;;;;;0.60;0.40;;;;;;;20.07;100.00;100982.27;104897;1254;72678;-50
2023/09/05 07:40:33;;;;;;;0.60;0.40;;;;;;;20.13;100.00;100979.52;104911;1254;60737;-52
2023/09/05 07:43:00;;;;;;;0.60;0.40;;;;;;;20.18;100.00;100984.80;104739;1256;60344;-52
2023/09/05 07:45:28;;;;;;;0.60;0.50;;;;;;;20.24;100.00;100984.75;104821;1256;74231;-53
2023/09/05 07:47:55;;;;;;;0.70;0.40;;;;;;;20.28;100.00;100982.84;109194;1254;66722;-54
2023/09/05 07:50:23;;;;;;;0.40;0.30;;;;;;;20.31;100.00;100980.84;109078;1252;72713;-52
2023/09/05 07:52:50;;;;;;;0.70;0.40;;;;;;;20.33;100.00;100979.23;109172;1253;60055;-51
2023/09/05 07:55:17;;;;;;;0.50;0.40;;;;;;;20.36;100.00;100985.40;105975;1254;60421;-51
2023/09/05 07:57:45;;;;;;;0.50;0.40;;;;;;;20.41;100.00;100980.69;104919;1254;72593;-54
2023/09/05 08:01:55;;;;;;;1.30;0.50;;;;;;;20.50;100.00;101018.23;101327;1293;600788;-50
2023/09/05 08:04:23;;;;;;;0.90;0.40;;;;;;;20.55;100.00;101013.84;105435;1270;60555;-50
2023/09/05 08:06:51;;;;;;;1.00;0.40;;;;;;;20.60;100.00;101012.57;103878;1273;60457;-51
2023/09/05 08:09:18;;;;;;;1.20;0.60;;;;;;;20.61;100.00;101002.79;103832;1271;72009;-53
2023/09/05 08:11:45;;;;;;;1.80;0.30;;;;;;;20.64;100.00;101004.09;103918;1271;67377;-51
2023/09/05 08:14:13;;;;;;;2.20;0.50;;;;;;;20.68;100.00;101003.41;104148;1272;72562;-51
2023/09/05 08:16:40;;;;;;;0.50;0.40;;;;;;;20.72;100.00;101001.67;103807;1267;203433;-53
2023/09/05 08:19:08;;;;;;;1.20;0.50;;;;;;;20.77;100.00;101004.38;103950;1264;59998;-53
2023/09/05 08:21:36;;;;;;;0.50;0.40;;;;;;;20.82;100.00;100999.12;103956;1269;72366;-52
2023/09/05 08:24:03;;;;;;;0.90;0.40;;;;;;;20.88;100.00;100996.17;103905;1264;66869;-52
2023/09/05 08:26:33;;;;;;;1.70;0.50;;;;;;;20.92;100.00;100991.27;106407;1266;71420;-52
2023/09/05 08:29:03;;;;;;;1.80;0.50;;;;;;;20.97;100.00;100992.73;103909;1269;59739;-52
2023/09/05 08:31:31;;;;;;;2.60;0.50;;;;;;;21.03;100.00;100989.75;106525;1266;60004;-53
2023/09/05 08:33:59;;;;;;;1.10;0.40;;;;;;;21.08;100.00;100989.56;103902;1270;73486;-49
2023/09/05 08:36:26;;;;;;;0.90;0.50;;;;;;;21.12;100.00;100988.91;103946;1264;66217;-52
2023/09/05 08:38:53;;;;;;;2.30;0.50;;;;;;;21.17;100.00;100982.39;104055;1270;73264;-52
2023/09/05 08:41:22;;;;;;;1.00;0.40;;;;;;;21.22;100.00;100989.33;104012;1270;59698;-48
2023/09/05 08:43:50;;;;;;;4.90;0.50;;;;;;;21.27;100.00;100989.30;103979;1270;59774;-53
2023/09/05 08:46:17;;;;;;;0.40;0.40;;;;;;;21.32;100.00;100996.59;103763;1264;72339;-53
2023/09/05 08:48:44;;;;;;;6.00;0.50;;;;;;;21.34;100.00;100989.70;103759;1269;67313;-51
2023/09/05 08:51:26;;;;;;;0.70;0.50;;;;;;;21.36;100.00;100992.66;103794;1274;73653;-48
2023/09/05 08:53:57;;;;;;;5.30;0.50;;;;;;;21.39;100.00;100988.60;104629;1267;60481;-53
2023/09/05 08:56:25;;;;;;;1.40;0.50;;;;;;;21.40;100.00;100994.38;104280;1264;60384;-52
2023/09/05 08:58:52;;;;;;;3.80;0.50;;;;;;;21.41;100.00;100988.30;103832;1269;73457;-51
2023/09/05 09:01:20;;;;;;;0.70;0.50;;;;;;;21.44;100.00;100990.95;103899;1270;66769;-55
2023/09/05 09:03:50;;;;;;;0.60;0.50;;;;;;;21.47;100.00;100987.98;104241;1269;72689;-49
2023/09/05 09:06:23;;;;;;;0.60;0.50;;;;;;;21.47;100.00;100985.46;103884;1267;59919;-49
2023/09/05 09:08:51;;;;;;;1.50;0.40;;;;;;;21.51;100.00;100987.73;103989;1270;59663;-52
2023/09/05 09:11:22;;;;;;;0.80;0.50;;;;;;;21.57;100.00;100985.82;104075;1269;70976;-49
2023/09/05 09:13:57;;;;;;;2.90;0.50;;;;;;;21.61;100.00;100986.76;104114;1266;66887;-49
2023/09/05 09:16:25;;;;;;;2.10;0.40;;;;;;;21.66;100.00;100987.52;104109;1264;72329;-50
2023/09/05 09:19:00;;;;;;;0.70;0.50;;;;;;;21.71;100.00;100990.91;104719;1263;60025;-53
2023/09/05 09:21:29;;;;;;;0.50;0.50;;;;;;;21.77;100.00;100994.54;105386;1269;59583;-52
2023/09/05 09:24:00;;;;;;;2.40;0.40;;;;;;;21.80;100.00;100990.62;104564;1264;73066;-48
2023/09/05 09:26:27;;;;;;;0.50;0.50;;;;;;;21.83;100.00;100988.03;103779;1264;67150;-48
2023/09/05 09:28:55;;;;;;;0.70;0.50;;;;;;;21.88;100.00;100990.55;104160;1264;72197;-51
2023/09/05 09:31:29;;;;;;;0.60;0.60;;;;;;;21.92;100.00;100986.30;103918;1270;60058;-49
2023/09/05 09:33:57;;;;;;;1.30;0.50;;;;;;;21.92;100.00;100984.80;103861;1267;60107;-54
2023/09/05 09:36:35;;;;;;;0.60;0.50;;;;;;;21.97;100.00;100989.15;106450;1267;73040;-51
2023/09/05 09:39:12;;;;;;;1.40;0.50;;;;;;;22.02;100.00;100984.65;104649;1259;67890;-48
2023/09/05 09:41:46;;;;;;;1.00;0.60;;;;;;;22.00;100.00;100973.47;107542;1260;71222;-50
2023/09/05 09:44:25;;;;;;;0.50;0.40;;;;;;;21.97;100.00;100979.50;108767;1257;58863;-50
2023/09/05 09:46:54;;;;;;;1.40;0.50;;;;;;;21.96;100.00;100978.63;108735;1259;58755;-51
2023/09/05 09:49:25;;;;;;;3.90;0.50;;;;;;;21.95;100.00;100979.84;108793;1260;73024;-52
2023/09/05 09:51:54;;;;;;;1.00;0.60;;;;;;;21.96;100.00;100980.34;106749;1257;67548;-50
2023/09/05 09:54:28;;;;;;;2.10;0.50;;;;;;;21.99;100.00;100975.31;104826;1258;72735;-49
2023/09/05 09:57:06;;;;;;;0.50;0.50;;;;;;;22.03;100.00;100977.22;108767;1257;58467;-49
2023/09/05 09:59:35;;;;;;;0.50;0.50;;;;;;;22.06;100.00;100967.50;108676;1257;58794;-50
2023/09/05 10:02:04;;;;;;;0.50;0.50;;;;;;;22.09;100.00;100965.08;105952;1258;71761;-49
2023/09/05 10:04:31;;;;;;;2.70;0.60;;;;;;;22.12;100.00;100961.00;106288;1257;68363;-50
2023/09/05 10:06:59;;;;;;;1.00;0.50;;;;;;;22.14;100.00;100968.84;104771;1261;71452;-49
2023/09/05 10:09:26;;;;;;;2.20;0.50;;;;;;;22.15;100.00;100970.44;104552;1258;60069;-52
2023/09/05 10:11:54;;;;;;;1.00;0.50;;;;;;;22.14;100.00;100967.39;104511;1257;59790;-52
2023/09/05 10:14:21;;;;;;;0.70;0.50;;;;;;;22.14;100.00;100970.28;104571;1258;72994;-48
2023/09/05 10:16:49;;;;;;;1.80;0.50;;;;;;;22.16;100.00;100966.73;104560;1264;65633;-54
2023/09/05 10:19:16;;;;;;;0.60;0.50;;;;;;;22.18;100.00;100968.17;104558;1261;71390;-49
2023/09/05 10:21:45;;;;;;;0.60;0.50;;;;;;;22.24;100.00;100972.84;104492;1265;60011;-47
2023/09/05 10:24:13;;;;;;;0.80;0.60;;;;;;;22.26;100.00;100966.67;104583;1264;60179;-50
2023/09/05 10:26:41;;;;;;;1.50;0.60;;;;;;;22.28;100.00;100964.13;104697;1263;73536;-49
2023/09/05 10:29:44;;;;;;;1.70;0.50;;;;;;;22.30;100.00;100969.24;104706;1257;64776;-51
2023/09/05 10:32:19;;;;;;;0.50;0.40;;;;;;;22.33;100.00;100959.70;104720;1260;72687;-51
2023/09/05 10:34:55;;;;;;;1.90;0.50;;;;;;;22.34;100.00;100961.64;106067;1262;61987;-51
2023/09/05 10:37:44;;;;;;;0.70;0.50;;;;;;;22.39;100.00;100963.42;105121;1258;59973;-50
2023/09/05 10:40:11;;;;;;;0.80;0.60;;;;;;;22.44;100.00;100959.41;104688;1262;72330;-52
2023/09/05 10:42:49;;;;;;;0.60;0.40;;;;;;;22.47;100.00;100954.77;104800;1263;67882;-51
2023/09/05 10:45:23;;;;;;;1.90;0.50;;;;;;;22.48;100.00;100951.33;104725;1260;71253;-52
2023/09/05 10:47:53;;;;;;;1.70;0.50;;;;;;;22.54;100.00;100953.31;105027;1261;60144;-53
2023/09/05 10:50:22;;;;;;;1.10;0.50;;;;;;;22.57;100.00;100950.06;105470;1258;59663;-51
2023/09/05 10:53:10;;;;;;;0.50;0.40;;;;;;;22.60;100.00;100951.66;106112;1259;73053;-49
2023/09/05 10:55:46;;;;;;;1.80;0.50;;;;;;;22.61;100.00;100948.84;104817;1257;67322;-49
2023/09/05 10:58:40;;;;;;;2.20;0.50;;;;;;;22.61;100.00;100945.41;107001;1257;72659;-49
2023/09/05 11:01:32;;;;;;;;;;;;;;;22.61;100.00;100950.88;107108;1259;60079;-52
2023/09/05 11:04:07;;;;;;;0.60;0.40;;;;;;;22.61;100.00;100948.27;105299;1261;59778;-50
2023/09/05 11:06:35;;;;;;;0.90;0.50;;;;;;;22.63;100.00;100948.14;105650;1258;71830;-52
2023/09/05 11:09:07;;;;;;;1.10;0.50;;;;;;;22.67;100.00;100950.63;104659;1260;65671;-50
2023/09/05 11:11:40;;;;;;;1.30;0.50;;;;;;;22.69;100.00;100951.18;105565;1260;71465;-51
2023/09/05 11:14:07;;;;;;;4.00;0.50;;;;;;;22.71;100.00;100943.35;104934;1259;59938;-49
2023/09/05 11:16:49;;;;;;;5.20;0.60;;;;;;;22.74;100.00;100941.05;104843;1260;59801;-48
2023/09/05 11:19:42;;;;;;;1.60;0.50;;;;;;;22.80;100.00;100940.46;105501;1258;71757;-49